Terminal Aerodrome Forecast
Issued by NWS Northern Indiana

Home | Current Version | Previous Version | Text Only | Print | Product List | Glossary On
Versions: 1 2 3 4 5 6 7 8 9 10 11 12 13 14 15 16 17 18 19 20 21 22 23 24 25 26
000
FTUS43 KIWX 191736
TAFFWA
TAF
KFWA 191736Z 1918/2018 01016G24KT P6SM -SHRA OVC015
     FM200400 02016G28KT P6SM -SHRA OVC010 WS020/04050KT
      TEMPO 2010/2014 3SM SHRA BR OVC006
     FM201400 36014G24KT P6SM OVC010=

USA.gov is the U.S. government's official web portal to all federal, state and local government web resources and services.